createdAt,value
2023-01-07T00:01:57.099Z,10.43
2023-01-07T00:04:42.029Z,8.18
2023-01-07T00:07:27.348Z,12.48
2023-01-07T00:10:12.539Z,17.05
2023-01-07T00:12:57.704Z,11.07
2023-01-07T00:15:42.741Z,12.13
2023-01-07T00:18:27.933Z,9.48
2023-01-07T00:21:17.070Z,9.85
2023-01-07T00:24:05.696Z,16.65
2023-01-07T00:26:50.836Z,11.25
2023-01-07T00:29:35.872Z,8.98
2023-01-07T00:32:21.195Z,9.93
2023-01-07T00:35:21.379Z,10.23
2023-01-07T00:38:06.399Z,15.38
2023-01-07T00:40:51.674Z,10.93
2023-01-07T00:43:36.885Z,11.20
2023-01-07T00:46:22.737Z,11.38
2023-01-07T00:49:07.660Z,17.75
2023-01-07T00:51:53.091Z,16.00
2023-01-07T00:54:38.078Z,14.48
2023-01-07T00:57:23.247Z,8.07
2023-01-07T01:00:14.094Z,9.75
2023-01-07T01:02:59.545Z,12.85
2023-01-07T01:05:44.581Z,16.52
2023-01-07T01:08:29.970Z,10.82
2023-01-07T01:11:16.618Z,8.57
2023-01-07T01:14:01.637Z,12.75
2023-01-07T01:16:46.836Z,10.20
2023-01-07T01:19:32.168Z,8.45
2023-01-07T01:22:17.371Z,8.23
2023-01-07T01:25:02.757Z,9.30
2023-01-07T01:27:47.860Z,11.10
2023-01-07T01:30:32.907Z,15.27
2023-01-07T01:33:18.159Z,10.13
2023-01-07T01:36:05.553Z,7.22
2023-01-07T01:38:50.457Z,13.18
2023-01-07T01:41:36.338Z,9.02
2023-01-07T01:44:55.265Z,13.70
2023-01-07T01:47:51.600Z,18.02
2023-01-07T01:50:41.528Z,12.02
2023-01-07T01:53:30.147Z,17.90
2023-01-07T01:56:20.084Z,8.27
2023-01-07T01:59:09.069Z,11.38
2023-01-07T02:01:54.342Z,7.68
2023-01-07T02:04:39.772Z,9.82
2023-01-07T02:07:25.198Z,8.20
2023-01-07T02:10:13.068Z,10.95
2023-01-07T02:13:11.032Z,7.05
2023-01-07T02:16:09.867Z,10.40
2023-01-07T02:19:37.485Z,6.05
2023-01-07T02:22:41.263Z,12.20
2023-01-07T02:25:57.060Z,10.15
2023-01-07T02:29:07.558Z,11.77
2023-01-07T02:32:17.649Z,11.68
2023-01-07T02:35:15.609Z,7.63
2023-01-07T02:38:18.593Z,8.73
2023-01-07T02:41:22.204Z,6.53
2023-01-07T02:44:16.493Z,10.45
2023-01-07T02:47:37.235Z,17.60
2023-01-07T02:50:22.431Z,13.38
2023-01-07T02:53:13.479Z,13.07
2023-01-07T02:56:21.248Z,11.63
2023-01-07T02:59:26.739Z,13.27
2023-01-07T03:02:11.521Z,15.27
2023-01-07T03:05:15.254Z,15.13
2023-01-07T03:08:18.940Z,11.48
2023-01-07T03:11:07.688Z,11.35
2023-01-07T03:14:24.288Z,10.77
2023-01-07T03:17:15.457Z,14.50
2023-01-07T03:20:03.588Z,12.10
2023-01-07T03:22:49.594Z,7.63
2023-01-07T03:25:40.510Z,6.88
2023-01-07T03:28:30.864Z,10.10
2023-01-07T03:31:15.973Z,11.98
2023-01-07T03:34:12.123Z,7.82
2023-01-07T03:37:02.598Z,10.15
2023-01-07T03:39:49.326Z,14.60
2023-01-07T03:42:40.488Z,11.52
2023-01-07T03:45:27.378Z,12.85
2023-01-07T03:48:12.928Z,12.05
2023-01-07T03:50:57.934Z,8.70
2023-01-07T03:53:42.897Z,10.35
2023-01-07T03:56:27.756Z,10.63
2023-01-07T03:59:12.978Z,15.70
2023-01-07T04:01:58.096Z,11.68
2023-01-07T04:04:43.420Z,13.27
2023-01-07T04:07:28.749Z,9.95
2023-01-07T04:10:13.972Z,11.95
2023-01-07T04:12:59.249Z,12.32
2023-01-07T04:15:44.663Z,10.75
2023-01-07T04:18:29.664Z,16.83
2023-01-07T04:21:14.637Z,11.88
2023-01-07T04:23:59.785Z,12.35
2023-01-07T04:26:44.937Z,9.85
2023-01-07T04:29:30.559Z,14.23
2023-01-07T04:32:15.537Z,12.38
2023-01-07T04:35:00.612Z,9.85
2023-01-07T04:37:45.830Z,12.98
2023-01-07T04:40:31.099Z,14.35
2023-01-07T04:43:16.280Z,8.07
2023-01-07T04:46:02.844Z,13.98
2023-01-07T04:48:47.784Z,16.13
2023-01-07T04:51:32.809Z,6.65
2023-01-07T04:54:18.025Z,13.63
2023-01-07T04:57:02.956Z,11.32
2023-01-07T04:59:48.176Z,7.35
2023-01-07T05:02:33.483Z,13.23
2023-01-07T05:05:18.554Z,5.60
2023-01-07T05:08:03.722Z,11.35
2023-01-07T05:10:50.084Z,10.82
2023-01-07T05:13:35.462Z,12.07
2023-01-07T05:16:20.477Z,9.95
2023-01-07T05:19:05.588Z,7.75
2023-01-07T05:21:50.850Z,7.85
2023-01-07T05:24:36.259Z,14.48
2023-01-07T05:27:21.435Z,10.48
2023-01-07T05:30:07.548Z,9.35
2023-01-07T05:32:52.376Z,9.85
2023-01-07T05:35:37.337Z,11.85
2023-01-07T05:38:23.817Z,7.93
2023-01-07T05:41:09.179Z,11.38
2023-01-07T05:43:54.289Z,5.95
2023-01-07T05:46:39.310Z,9.32
2023-01-07T05:49:24.543Z,7.90
2023-01-07T05:52:09.681Z,7.47
2023-01-07T05:54:54.652Z,7.07
2023-01-07T05:57:39.747Z,7.18
2023-01-07T06:00:25.058Z,11.52
2023-01-07T06:03:10.307Z,8.65
2023-01-07T06:05:55.572Z,9.20
2023-01-07T06:08:40.632Z,11.48
2023-01-07T06:11:26.082Z,9.18
2023-01-07T06:14:11.300Z,10.85
2023-01-07T06:16:56.661Z,8.60
2023-01-07T06:19:41.493Z,6.78
2023-01-07T06:22:27.007Z,6.65
2023-01-07T06:25:12.868Z,7.35
2023-01-07T06:27:58.492Z,10.48
2023-01-07T06:30:47.331Z,5.90
2023-01-07T06:33:33.581Z,10.20
2023-01-07T06:36:19.540Z,10.88
2023-01-07T06:39:05.106Z,8.38
2023-01-07T06:41:50.450Z,7.03
2023-01-07T06:44:35.625Z,8.07
2023-01-07T06:47:20.956Z,11.43
2023-01-07T06:50:06.866Z,8.20
2023-01-07T06:52:52.171Z,11.60
2023-01-07T06:55:37.465Z,8.07
2023-01-07T06:58:22.806Z,10.52
2023-01-07T07:01:08.773Z,9.73
2023-01-07T07:03:54.261Z,11.75
2023-01-07T07:06:39.423Z,8.95
2023-01-07T07:09:24.409Z,13.30
2023-01-07T07:12:10.007Z,7.57
2023-01-07T07:14:55.166Z,10.68
2023-01-07T07:17:40.489Z,7.30
2023-01-07T07:20:25.694Z,6.30
2023-01-07T07:23:10.737Z,5.50
2023-01-07T07:25:56.082Z,8.00
2023-01-07T07:28:42.850Z,10.48
2023-01-07T07:31:28.047Z,10.95
2023-01-07T07:34:13.292Z,9.80
2023-01-07T07:36:58.569Z,10.77
2023-01-07T07:39:43.641Z,10.35
2023-01-07T07:42:28.864Z,7.30
2023-01-07T07:45:16.133Z,9.50
2023-01-07T07:48:01.360Z,11.13
2023-01-07T07:50:50.693Z,10.00
2023-01-07T07:53:36.017Z,14.98
2023-01-07T07:56:21.283Z,13.00
2023-01-07T07:59:06.403Z,9.70
2023-01-07T08:01:51.743Z,10.90
2023-01-07T08:04:36.963Z,10.45
2023-01-07T08:07:32.514Z,14.40
2023-01-07T08:10:20.503Z,9.10
2023-01-07T08:13:05.591Z,12.18
2023-01-07T08:15:50.911Z,10.80
2023-01-07T08:18:36.499Z,8.70
2023-01-07T08:21:21.875Z,10.43
2023-01-07T08:24:07.167Z,6.93
2023-01-07T08:26:55.545Z,10.65
2023-01-07T08:29:40.846Z,9.68
2023-01-07T08:32:25.960Z,15.25
2023-01-07T08:35:11.824Z,8.98
2023-01-07T08:38:08.854Z,13.60
2023-01-07T08:40:53.889Z,13.27
2023-01-07T08:43:38.719Z,10.32
2023-01-07T08:46:24.058Z,7.28
2023-01-07T08:49:10.638Z,15.93
2023-01-07T08:51:55.656Z,8.60
2023-01-07T08:54:40.765Z,9.55
2023-01-07T08:57:25.877Z,7.78
2023-01-07T09:00:11.634Z,7.97
2023-01-07T09:02:56.721Z,10.27
2023-01-07T09:05:41.642Z,10.60
2023-01-07T09:08:26.509Z,10.60
2023-01-07T09:11:11.755Z,11.95
2023-01-07T09:13:57.120Z,9.82
2023-01-07T09:16:42.427Z,12.18
2023-01-07T09:19:27.901Z,9.80
2023-01-07T09:22:12.881Z,8.10
2023-01-07T09:24:58.036Z,9.70
2023-01-07T09:27:42.991Z,8.23
2023-01-07T09:30:28.068Z,11.68
2023-01-07T09:33:13.314Z,12.73
2023-01-07T09:35:58.579Z,11.30
2023-01-07T09:38:43.630Z,10.45
2023-01-07T09:41:34.566Z,7.85
2023-01-07T09:44:47.872Z,20.33
2023-01-07T09:47:37.091Z,10.43
2023-01-07T09:50:25.489Z,12.23
2023-01-07T09:53:22.553Z,11.77
2023-01-07T09:56:20.593Z,13.27
2023-01-07T09:59:07.460Z,12.32
2023-01-07T10:01:52.796Z,11.98
2023-01-07T10:04:52.559Z,10.85
2023-01-07T10:07:47.865Z,11.88
2023-01-07T10:10:45.855Z,10.48
2023-01-07T10:13:55.851Z,13.55
2023-01-07T10:16:50.852Z,10.45
2023-01-07T10:19:47.319Z,17.25
2023-01-07T10:22:37.386Z,9.45
2023-01-07T10:25:28.633Z,11.90
2023-01-07T10:28:20.780Z,12.98
2023-01-07T10:31:10.683Z,9.35
2023-01-07T10:36:49.989Z,15.13
2023-01-07T10:40:12.594Z,15.18
2023-01-07T10:43:02.748Z,14.05
2023-01-07T10:48:54.209Z,14.70
2023-01-07T10:51:42.179Z,11.98
2023-01-07T10:54:27.135Z,14.82
2023-01-07T10:57:19.904Z,14.93
2023-01-07T11:00:10.824Z,14.73
2023-01-07T11:03:00.159Z,15.60
2023-01-07T11:05:46.667Z,12.40
2023-01-07T11:08:42.532Z,18.90
2023-01-07T11:11:27.582Z,14.75
2023-01-07T11:14:20.803Z,10.52
2023-01-07T11:17:18.121Z,11.23
2023-01-07T11:20:04.523Z,15.43
2023-01-07T11:22:49.421Z,11.80
2023-01-07T11:25:34.730Z,14.45
2023-01-07T11:28:26.700Z,13.07
2023-01-07T11:31:12.035Z,10.40
2023-01-07T11:34:03.465Z,12.85
2023-01-07T11:36:49.687Z,14.25
2023-01-07T11:39:36.551Z,12.23
2023-01-07T11:42:39.737Z,10.90
2023-01-07T11:45:35.299Z,18.85
2023-01-07T11:48:28.101Z,15.30
2023-01-07T11:51:13.336Z,20.63
2023-01-07T11:54:00.055Z,17.92
2023-01-07T11:56:45.185Z,12.38
2023-01-07T11:59:30.328Z,12.02
2023-01-07T12:02:26.603Z,11.80
2023-01-07T12:05:30.079Z,13.18
2023-01-07T12:08:22.870Z,19.90
2023-01-07T12:11:10.470Z,15.75
2023-01-07T12:13:55.647Z,12.75
2023-01-07T12:16:41.570Z,17.58
2023-01-07T12:19:48.056Z,17.80
2023-01-07T12:23:04.166Z,14.35
2023-01-07T12:25:58.378Z,20.50
2023-01-07T12:28:58.230Z,12.55
2023-01-07T12:31:47.640Z,12.57
2023-01-07T12:34:35.713Z,10.95
2023-01-07T12:37:32.315Z,10.07
2023-01-07T12:40:20.184Z,14.75
2023-01-07T12:43:18.634Z,18.92
2023-01-07T12:46:07.319Z,15.25
2023-01-07T12:49:28.568Z,9.30
2023-01-07T12:52:21.331Z,13.50
2023-01-07T12:55:29.965Z,15.52
2023-01-07T12:58:50.233Z,13.50
2023-01-07T13:02:00.573Z,9.52
2023-01-07T13:05:07.662Z,20.63
2023-01-07T13:08:12.758Z,12.77
2023-01-07T13:11:09.571Z,22.95
2023-01-07T13:13:55.574Z,14.52
2023-01-07T13:16:40.797Z,10.32
2023-01-07T13:19:26.449Z,13.25
2023-01-07T13:22:33.958Z,18.85
2023-01-07T13:25:33.138Z,12.25
2023-01-07T13:28:40.270Z,16.48
2023-01-07T13:31:54.292Z,11.90
2023-01-07T13:34:54.045Z,11.25
2023-01-07T13:38:04.582Z,13.02
2023-01-07T13:41:08.237Z,12.10
2023-01-07T13:44:07.069Z,14.38
2023-01-07T13:46:52.659Z,8.50
2023-01-07T13:49:37.898Z,12.43
2023-01-07T13:52:25.801Z,16.80
2023-01-07T13:55:32.469Z,21.25
2023-01-07T13:58:46.501Z,17.90
2023-01-07T14:01:33.558Z,17.50
2023-01-07T14:04:46.984Z,22.33
2023-01-07T14:07:53.907Z,18.63
2023-01-07T14:10:39.537Z,16.77
2023-01-07T14:13:38.809Z,15.98
2023-01-07T14:16:28.416Z,15.65
2023-01-07T14:19:31.934Z,17.40
2023-01-07T14:22:35.839Z,29.23
2023-01-07T14:25:30.114Z,16.23
2023-01-07T14:28:15.083Z,12.13
2023-01-07T14:31:00.320Z,14.57
2023-01-07T14:33:53.119Z,15.85
2023-01-07T14:37:05.058Z,22.60
2023-01-07T14:39:50.561Z,14.48
2023-01-07T14:42:38.799Z,15.25
2023-01-07T14:45:42.195Z,10.77
2023-01-07T14:48:33.433Z,16.38
2023-01-07T14:51:21.548Z,18.05
2023-01-07T14:54:34.470Z,17.65
2023-01-07T14:57:25.637Z,12.80
2023-01-07T15:00:16.730Z,12.38
2023-01-07T15:03:20.625Z,18.52
2023-01-07T15:06:12.416Z,20.65
2023-01-07T15:09:27.796Z,16.77
2023-01-07T15:12:40.129Z,10.40
2023-01-07T15:15:48.202Z,13.43
2023-01-07T15:18:51.495Z,15.80
2023-01-07T15:21:50.125Z,14.25
2023-01-07T15:24:44.903Z,13.25
2023-01-07T15:27:44.814Z,20.10
2023-01-07T15:30:41.369Z,19.55
2023-01-07T15:33:57.302Z,17.55
2023-01-07T15:36:45.509Z,12.90
2023-01-07T15:39:40.836Z,20.05
2023-01-07T15:42:27.388Z,18.98
2023-01-07T15:45:22.093Z,12.60
2023-01-07T15:48:12.050Z,15.00
2023-01-07T15:53:55.050Z,12.35
2023-01-07T15:56:40.221Z,10.93
2023-01-07T15:59:29.684Z,17.48
2023-01-07T16:02:41.139Z,15.02
2023-01-07T16:05:27.015Z,17.98
2023-01-07T16:08:18.333Z,19.25
2023-01-07T16:11:06.524Z,17.30
2023-01-07T16:14:16.186Z,19.88
2023-01-07T16:17:13.310Z,17.63
2023-01-07T16:20:37.733Z,22.73
2023-01-07T16:23:26.513Z,24.15
2023-01-07T16:26:27.196Z,21.67
2023-01-07T16:29:26.339Z,17.70
2023-01-07T16:32:11.921Z,20.63
2023-01-07T16:34:57.185Z,21.45
2023-01-07T16:37:43.063Z,17.80
2023-01-07T16:40:35.161Z,20.90
2023-01-07T16:43:38.234Z,26.33
2023-01-07T16:46:26.717Z,24.40
2023-01-07T16:49:11.734Z,19.33
2023-01-07T16:52:02.691Z,16.00
2023-01-07T16:54:49.483Z,15.85
2023-01-07T16:57:42.247Z,15.38
2023-01-07T17:00:27.388Z,17.65
2023-01-07T17:03:13.591Z,16.08
2023-01-07T17:06:06.675Z,19.35
2023-01-07T17:08:54.290Z,15.63
2023-01-07T17:11:40.084Z,16.92
2023-01-07T17:14:34.097Z,21.08
2023-01-07T17:17:24.977Z,17.83
2023-01-07T17:20:18.992Z,21.75
2023-01-07T17:23:26.801Z,12.25
2023-01-07T17:26:18.475Z,11.38
2023-01-07T17:29:12.847Z,16.70
2023-01-07T17:31:57.808Z,6.68
2023-01-07T17:34:42.902Z,12.00
2023-01-07T17:37:28.131Z,11.13
2023-01-07T17:40:14.606Z,8.10
2023-01-07T17:43:18.495Z,13.23
2023-01-07T17:46:06.471Z,11.32
2023-01-07T17:48:51.536Z,14.95
2023-01-07T17:51:40.848Z,10.90
2023-01-07T17:54:26.132Z,15.48
2023-01-07T17:57:12.635Z,14.57
2023-01-07T17:59:58.003Z,24.25
2023-01-07T18:02:43.641Z,21.77
2023-01-07T18:05:28.919Z,15.07
2023-01-07T18:08:14.149Z,18.10
2023-01-07T18:11:18.007Z,15.38
2023-01-07T18:14:04.340Z,12.23
2023-01-07T18:16:50.653Z,17.65
2023-01-07T18:19:36.202Z,15.88
2023-01-07T18:22:22.020Z,7.53
2023-01-07T18:25:14.510Z,7.70
2023-01-07T18:27:59.710Z,3.60
2023-01-07T18:30:44.556Z,6.63
2023-01-07T18:33:29.620Z,3.75
2023-01-07T18:36:16.691Z,6.80
2023-01-07T18:39:02.598Z,5.43
2023-01-07T18:41:50.479Z,3.40
2023-01-07T18:44:35.579Z,6.00
2023-01-07T18:47:20.827Z,10.18
2023-01-07T18:50:06.513Z,5.38
2023-01-07T18:52:51.695Z,4.47
2023-01-07T18:55:38.540Z,7.72
2023-01-07T18:58:24.613Z,5.15
2023-01-07T19:01:10.169Z,3.97
2023-01-07T19:03:55.601Z,6.07
2023-01-07T19:06:40.811Z,4.55
2023-01-07T19:09:25.762Z,7.55
2023-01-07T19:12:12.222Z,7.18
2023-01-07T19:14:57.447Z,6.85
2023-01-07T19:17:42.628Z,11.40
2023-01-07T19:20:27.909Z,11.98
2023-01-07T19:23:12.808Z,8.07
2023-01-07T19:26:03.641Z,9.07
2023-01-07T19:28:48.830Z,11.13
2023-01-07T19:31:34.047Z,16.00
2023-01-07T19:34:19.677Z,13.38
2023-01-07T19:37:04.911Z,22.45
2023-01-07T19:39:50.231Z,16.42
2023-01-07T19:42:35.670Z,10.95
2023-01-07T19:45:20.503Z,14.45
2023-01-07T19:48:07.439Z,17.23
2023-01-07T19:50:57.513Z,12.15
2023-01-07T19:53:42.255Z,19.88
2023-01-07T19:56:27.703Z,23.58
2023-01-07T19:59:12.998Z,18.48
2023-01-07T20:01:58.230Z,17.25
2023-01-07T20:04:43.655Z,17.55
2023-01-07T20:07:33.904Z,24.13
2023-01-07T20:10:19.133Z,16.98
2023-01-07T20:13:06.351Z,23.92
2023-01-07T20:15:51.869Z,14.65
2023-01-07T20:18:42.097Z,19.58
2023-01-07T20:21:27.618Z,12.98
2023-01-07T20:24:13.086Z,11.05
2023-01-07T20:26:58.304Z,26.52
2023-01-07T20:29:43.681Z,20.67
2023-01-07T20:32:28.695Z,20.73
2023-01-07T20:35:13.768Z,19.77
2023-01-07T20:37:58.679Z,15.07
2023-01-07T20:40:43.778Z,17.92
2023-01-07T20:43:28.804Z,22.98
2023-01-07T20:46:14.076Z,21.85
2023-01-07T20:48:59.546Z,24.30
2023-01-07T20:51:44.724Z,22.58
2023-01-07T20:54:30.127Z,24.88
2023-01-07T20:57:15.081Z,23.58
2023-01-07T21:00:00.320Z,22.13
2023-01-07T21:02:45.387Z,14.68
2023-01-07T21:05:30.379Z,25.65
2023-01-07T21:08:15.523Z,24.90
2023-01-07T21:11:00.562Z,20.75
2023-01-07T21:13:46.575Z,31.17
2023-01-07T21:16:32.490Z,24.88
2023-01-07T21:19:17.651Z,34.50
2023-01-07T21:22:03.068Z,36.83
2023-01-07T21:24:48.157Z,35.47
2023-01-07T21:27:33.173Z,23.80
2023-01-07T21:30:18.399Z,29.15
2023-01-07T21:33:03.478Z,30.60
2023-01-07T21:35:48.700Z,28.15
2023-01-07T21:38:33.957Z,22.83
2023-01-07T21:41:19.841Z,30.63
2023-01-07T21:44:05.006Z,34.00
2023-01-07T21:46:50.318Z,32.55
2023-01-07T21:49:35.379Z,22.17
2023-01-07T21:52:20.446Z,23.83
2023-01-07T21:55:06.178Z,32.80
2023-01-07T21:57:51.152Z,25.23
2023-01-07T22:00:36.268Z,25.52
2023-01-07T22:03:21.360Z,32.60
2023-01-07T22:06:14.276Z,35.65
2023-01-07T22:09:07.265Z,26.10
2023-01-07T22:11:52.601Z,26.35
2023-01-07T22:14:38.132Z,25.40
2023-01-07T22:17:24.487Z,39.03
2023-01-07T22:20:10.673Z,30.05
2023-01-07T22:22:55.782Z,26.85
2023-01-07T22:25:40.707Z,30.17
2023-01-07T22:28:26.159Z,33.05
2023-01-07T22:31:23.525Z,29.10
2023-01-07T22:34:09.703Z,31.50
2023-01-07T22:36:54.581Z,28.83
2023-01-07T22:39:44.199Z,27.15
2023-01-07T22:42:45.178Z,30.25
2023-01-07T22:45:46.656Z,30.92
2023-01-07T22:48:35.592Z,30.35
2023-01-07T22:51:25.107Z,28.30
2023-01-07T22:54:12.436Z,32.70
2023-01-07T22:56:58.030Z,28.77
2023-01-07T22:59:43.940Z,42.17
2023-01-07T23:02:29.783Z,26.42
2023-01-07T23:05:15.145Z,27.73
2023-01-07T23:08:00.207Z,25.77
2023-01-07T23:10:45.836Z,28.83
2023-01-07T23:13:34.418Z,31.17
2023-01-07T23:16:19.731Z,31.80
2023-01-07T23:19:05.461Z,30.15
2023-01-07T23:21:53.369Z,32.50
2023-01-07T23:24:38.579Z,33.78
2023-01-07T23:27:23.730Z,28.98
2023-01-07T23:30:09.501Z,32.58
2023-01-07T23:32:54.749Z,51.95
2023-01-07T23:35:39.826Z,38.17
2023-01-07T23:38:26.144Z,35.97
2023-01-07T23:41:12.258Z,32.95
2023-01-07T23:43:57.224Z,31.75
2023-01-07T23:46:42.167Z,39.28
2023-01-07T23:49:27.173Z,29.73
2023-01-07T23:52:12.225Z,33.35
2023-01-07T23:54:57.197Z,26.58
2023-01-07T23:57:42.098Z,27.70
